sensor_id;sensor_type;location;lat;lon;timestamp;pressure;altitude;pressure_sealevel;temperature
64488;BMP280;50864;45.050;39.014;2023-02-22T00:47:12;100001.75;;;8.37
64488;BMP280;50864;45.050;39.014;2023-02-22T00:49:40;100001.75;;;8.37
64488;BMP280;50864;45.050;39.014;2023-02-22T00:52:07;100246.94;;;5.82
64488;BMP280;50864;45.050;39.014;2023-02-22T00:54:34;100262.34;;;5.85
64488;BMP280;50864;45.050;39.014;2023-02-22T00:57:01;100253.06;;;5.82
64488;BMP280;50864;45.050;39.014;2023-02-22T00:59:27;100262.59;;;5.88
64488;BMP280;50864;45.050;39.014;2023-02-22T01:01:55;100258.13;;;5.94
64488;BMP280;50864;45.050;39.014;2023-02-22T01:04:21;100262.66;;;5.98
64488;BMP280;50864;45.050;39.014;2023-02-22T01:06:48;100267.16;;;5.98
64488;BMP280;50864;45.050;39.014;2023-02-22T01:09:14;100269.03;;;5.97
64488;BMP280;50864;45.050;39.014;2023-02-22T01:11:40;100269.81;;;5.98
64488;BMP280;50864;45.050;39.014;2023-02-22T01:14:06;100270.09;;;5.96
64488;BMP280;50864;45.050;39.014;2023-02-22T01:16:35;100262.66;;;5.93
64488;BMP280;50864;45.050;39.014;2023-02-22T01:19:01;100266.34;;;5.92
64488;BMP280;50864;45.050;39.014;2023-02-22T01:21:27;100274.56;;;5.91
64488;BMP280;50864;45.050;39.014;2023-02-22T01:23:53;100287.31;;;5.89
64488;BMP280;50864;45.050;39.014;2023-02-22T01:26:20;100288.09;;;5.84
64488;BMP280;50864;45.050;39.014;2023-02-22T01:28:45;100282.53;;;5.81
64488;BMP280;50864;45.050;39.014;2023-02-22T01:31:11;100284.91;;;5.82
64488;BMP280;50864;45.050;39.014;2023-02-22T01:33:39;100287.81;;;5.81
64488;BMP280;50864;45.050;39.014;2023-02-22T01:36:06;100284.37;;;5.85
64488;BMP280;50864;45.050;39.014;2023-02-22T01:38:37;100282.78;;;5.84
64488;BMP280;50864;45.050;39.014;2023-02-22T01:41:04;100291.31;;;5.86
64488;BMP280;50864;45.050;39.014;2023-02-22T01:43:31;100309.88;;;5.86
64488;BMP280;50864;45.050;39.014;2023-02-22T01:46:01;100306.94;;;5.88
64488;BMP280;50864;45.050;39.014;2023-02-22T01:51:09;100308.00;;;5.82
64488;BMP280;50864;45.050;39.014;2023-02-22T01:53:40;100302.66;;;5.77
64488;BMP280;50864;45.050;39.014;2023-02-22T01:56:07;100320.44;;;5.76
64488;BMP280;50864;45.050;39.014;2023-02-22T01:58:35;100313.53;;;5.70
64488;BMP280;50864;45.050;39.014;2023-02-22T02:01:04;100318.56;;;5.67
64488;BMP280;50864;45.050;39.014;2023-02-22T02:03:34;100314.28;;;5.65
64488;BMP280;50864;45.050;39.014;2023-02-22T02:06:05;100319.06;;;5.63
64488;BMP280;50864;45.050;39.014;2023-02-22T02:09:12;100315.59;;;5.63
64488;BMP280;50864;45.050;39.014;2023-02-22T02:11:40;100316.66;;;5.62
64488;BMP280;50864;45.050;39.014;2023-02-22T02:14:08;100332.28;;;5.58
64488;BMP280;50864;45.050;39.014;2023-02-22T02:16:39;100323.25;;;5.54
64488;BMP280;50864;45.050;39.014;2023-02-22T02:19:10;100327.78;;;5.54
64488;BMP280;50864;45.050;39.014;2023-02-22T02:27:05;100334.94;;;5.53
64488;BMP280;50864;45.050;39.014;2023-02-22T02:32:19;100333.88;;;5.54
64488;BMP280;50864;45.050;39.014;2023-02-22T02:37:55;100338.69;;;5.62
64488;BMP280;50864;45.050;39.014;2023-02-22T02:43:31;100334.72;;;5.65
64488;BMP280;50864;45.050;39.014;2023-02-22T02:46:09;100335.22;;;5.62
64488;BMP280;50864;45.050;39.014;2023-02-22T02:48:42;100336.53;;;5.59
64488;BMP280;50864;45.050;39.014;2023-02-22T02:51:09;100347.19;;;5.64
64488;BMP280;50864;45.050;39.014;2023-02-22T02:53:43;100344.31;;;5.71
64488;BMP280;50864;45.050;39.014;2023-02-22T02:56:11;100345.37;;;5.75
64488;BMP280;50864;45.050;39.014;2023-02-22T02:58:49;100337.72;;;5.79
64488;BMP280;50864;45.050;39.014;2023-02-22T03:04:20;100360.00;;;5.78
64488;BMP280;50864;45.050;39.014;2023-02-22T03:13:00;100367.97;;;5.78
64488;BMP280;50864;45.050;39.014;2023-02-22T03:18:06;100369.88;;;5.82
64488;BMP280;50864;45.050;39.014;2023-02-22T03:20:43;100372.81;;;5.86
64488;BMP280;50864;45.050;39.014;2023-02-22T03:23:26;100373.34;;;5.88
64488;BMP280;50864;45.050;39.014;2023-02-22T03:26:05;100376.25;;;5.86
64488;BMP280;50864;45.050;39.014;2023-02-22T03:28:37;100378.38;;;5.84
64488;BMP280;50864;45.050;39.014;2023-02-22T03:31:24;100383.69;;;5.84
64488;BMP280;50864;45.050;39.014;2023-02-22T03:33:56;100373.59;;;5.86
64488;BMP280;50864;45.050;39.014;2023-02-22T03:36:29;100374.41;;;5.87
64488;BMP280;50864;45.050;39.014;2023-02-22T03:38:57;100375.47;;;5.86
64488;BMP280;50864;45.050;39.014;2023-02-22T03:41:25;100366.44;;;5.87
64488;BMP280;50864;45.050;39.014;2023-02-22T03:44:03;100377.88;;;5.92
64488;BMP280;50864;45.050;39.014;2023-02-22T03:46:31;100386.16;;;5.96
64488;BMP280;50864;45.050;39.014;2023-02-22T03:49:26;100387.72;;;5.97
64488;BMP280;50864;45.050;39.014;2023-02-22T03:51:56;100387.72;;;5.97
64488;BMP280;50864;45.050;39.014;2023-02-22T03:54:22;100393.56;;;5.94
64488;BMP280;50864;45.050;39.014;2023-02-22T03:56:52;100390.38;;;5.92
64488;BMP280;50864;45.050;39.014;2023-02-22T03:59:21;100385.56;;;5.89
64488;BMP280;50864;45.050;39.014;2023-02-22T04:01:55;100386.34;;;5.89
64488;BMP280;50864;45.050;39.014;2023-02-22T04:04:23;100404.16;;;5.89
64488;BMP280;50864;45.050;39.014;2023-02-22T04:06:50;100407.06;;;5.82
64488;BMP280;50864;45.050;39.014;2023-02-22T04:09:17;100413.13;;;5.78
64488;BMP280;50864;45.050;39.014;2023-02-22T04:11:44;100412.56;;;5.71
64488;BMP280;50864;45.050;39.014;2023-02-22T04:14:11;100418.88;;;5.64
64488;BMP280;50864;45.050;39.014;2023-02-22T04:16:36;100427.81;;;5.58
64488;BMP280;50864;45.050;39.014;2023-02-22T04:19:04;100431.56;;;5.57
64488;BMP280;50864;45.050;39.014;2023-02-22T04:21:33;100431.56;;;5.57
64488;BMP280;50864;45.050;39.014;2023-02-22T04:23:59;100418.81;;;5.54
64488;BMP280;50864;45.050;39.014;2023-02-22T04:26:25;100416.16;;;5.54
64488;BMP280;50864;45.050;39.014;2023-02-22T04:28:51;100428.91;;;5.57
64488;BMP280;50864;45.050;39.014;2023-02-22T04:31:17;100427.81;;;5.58
64488;BMP280;50864;45.050;39.014;2023-02-22T04:33:43;100439.25;;;5.59
64488;BMP280;50864;45.050;39.014;2023-02-22T04:36:10;100431.56;;;5.57
64488;BMP280;50864;45.050;39.014;2023-02-22T04:38:42;100433.69;;;5.55
64488;BMP280;50864;45.050;39.014;2023-02-22T04:41:08;100433.69;;;5.55
64488;BMP280;50864;45.050;39.014;2023-02-22T04:43:34;100442.94;;;5.58
64488;BMP280;50864;45.050;39.014;2023-02-22T04:46:01;100448.00;;;5.59
64488;BMP280;50864;45.050;39.014;2023-02-22T04:48:27;100448.06;;;5.64
64488;BMP280;50864;45.050;39.014;2023-02-22T04:50:53;100457.13;;;5.69
64488;BMP280;50864;45.050;39.014;2023-02-22T04:53:19;100446.50;;;5.74
64488;BMP280;50864;45.050;39.014;2023-02-22T04:55:45;100454.28;;;5.80
64488;BMP280;50864;45.050;39.014;2023-02-22T04:58:11;100454.69;;;5.99
64488;BMP280;50864;45.050;39.014;2023-02-22T05:00:37;100456.63;;;6.14
64488;BMP280;50864;45.050;39.014;2023-02-22T05:03:04;100456.19;;;6.27
64488;BMP280;50864;45.050;39.014;2023-02-22T05:05:30;100467.37;;;6.39
64488;BMP280;50864;45.050;39.014;2023-02-22T05:07:56;100475.16;;;6.51
64488;BMP280;50864;45.050;39.014;2023-02-22T05:10:23;100483.19;;;6.66
64488;BMP280;50864;45.050;39.014;2023-02-22T05:12:49;100494.72;;;6.87
64488;BMP280;50864;45.050;39.014;2023-02-22T05:15:18;100502.75;;;7.07
64488;BMP280;50864;45.050;39.014;2023-02-22T05:17:45;100495.59;;;7.22
64488;BMP280;50864;45.050;39.014;2023-02-22T05:20:31;100486.28;;;7.30
64488;BMP280;50864;45.050;39.014;2023-02-22T05:22:59;100496.41;;;7.33
64488;BMP280;50864;45.050;39.014;2023-02-22T05:25:25;100505.72;;;7.36
64488;BMP280;50864;45.050;39.014;2023-02-22T05:27:54;100502.53;;;7.39
64488;BMP280;50864;45.050;39.014;2023-02-22T05:30:23;100515.84;;;7.39
64488;BMP280;50864;45.050;39.014;2023-02-22T05:32:50;100514.00;;;7.39
64488;BMP280;50864;45.050;39.014;2023-02-22T05:35:17;100524.91;;;7.38
64488;BMP280;50864;45.050;39.014;2023-02-22T05:37:44;100533.41;;;7.40
64488;BMP280;50864;45.050;39.014;2023-02-22T05:40:11;100531.28;;;7.37
64488;BMP280;50864;45.050;39.014;2023-02-22T05:42:37;100535.00;;;7.36
64488;BMP280;50864;45.050;39.014;2023-02-22T05:45:03;100550.44;;;7.34
64488;BMP280;50864;45.050;39.014;2023-02-22T05:47:29;100550.44;;;7.34
64488;BMP280;50864;45.050;39.014;2023-02-22T05:49:54;100552.03;;;7.35
64488;BMP280;50864;45.050;39.014;2023-02-22T05:52:20;100543.28;;;7.39
64488;BMP280;50864;45.050;39.014;2023-02-22T05:54:46;100553.66;;;7.46
64488;BMP280;50864;45.050;39.014;2023-02-22T05:57:12;100558.72;;;7.52
64488;BMP280;50864;45.050;39.014;2023-02-22T05:59:38;100562.19;;;7.58
64488;BMP280;50864;45.050;39.014;2023-02-22T06:02:04;100572.31;;;7.61
64488;BMP280;50864;45.050;39.014;2023-02-22T06:04:30;100583.78;;;7.61
64488;BMP280;50864;45.050;39.014;2023-02-22T06:06:55;100591.22;;;7.59
64488;BMP280;50864;45.050;39.014;2023-02-22T06:09:21;100576.31;;;7.58
64488;BMP280;50864;45.050;39.014;2023-02-22T06:11:47;100590.94;;;7.56
64488;BMP280;50864;45.050;39.014;2023-02-22T06:14:13;100603.72;;;7.54
64488;BMP280;50864;45.050;39.014;2023-02-22T06:16:39;100606.13;;;7.50
64488;BMP280;50864;45.050;39.014;2023-02-22T06:19:05;100608.50;;;7.47
64488;BMP280;50864;45.050;39.014;2023-02-22T06:21:31;100604.78;;;7.48
64488;BMP280;50864;45.050;39.014;2023-02-22T06:23:56;100609.59;;;7.51
64488;BMP280;50864;45.050;39.014;2023-02-22T06:26:22;100598.66;;;7.52
64488;BMP280;50864;45.050;39.014;2023-02-22T06:28:49;100621.84;;;7.52
64488;BMP280;50864;45.050;39.014;2023-02-22T06:31:14;100630.84;;;7.46
64488;BMP280;50864;45.050;39.014;2023-02-22T06:33:42;100629.78;;;7.42
64488;BMP280;50864;45.050;39.014;2023-02-22T06:36:08;100629.53;;;7.38
64488;BMP280;50864;45.050;39.014;2023-02-22T06:38:34;100640.97;;;7.39
64488;BMP280;50864;45.050;39.014;2023-02-22T06:41:00;100637.22;;;7.40
64488;BMP280;50864;45.050;39.014;2023-02-22T06:43:27;100644.44;;;7.39
64488;BMP280;50864;45.050;39.014;2023-02-22T06:45:53;100645.75;;;7.37
64488;BMP280;50864;45.050;39.014;2023-02-22T06:48:19;100644.69;;;7.38
64488;BMP280;50864;45.050;39.014;2023-02-22T06:50:45;100656.41;;;7.37
64488;BMP280;50864;45.050;39.014;2023-02-22T06:53:10;100655.59;;;7.36
64488;BMP280;50864;45.050;39.014;2023-02-22T06:55:36;100644.16;;;7.41
64488;BMP280;50864;45.050;39.014;2023-02-22T06:58:03;100648.44;;;7.47
64488;BMP280;50864;45.050;39.014;2023-02-22T07:00:29;100644.22;;;7.51
64488;BMP280;50864;45.050;39.014;2023-02-22T07:02:57;100658.03;;;7.53
64488;BMP280;50864;45.050;39.014;2023-02-22T07:05:24;100670.28;;;7.54
64488;BMP280;50864;45.050;39.014;2023-02-22T07:07:52;100665.75;;;7.54
64488;BMP280;50864;45.050;39.014;2023-02-22T07:12:46;100673.72;;;7.54
64488;BMP280;50864;45.050;39.014;2023-02-22T07:15:14;100674.50;;;7.45
64488;BMP280;50864;45.050;39.014;2023-02-22T07:17:42;100680.38;;;7.42
64488;BMP280;50864;45.050;39.014;2023-02-22T07:20:09;100692.06;;;7.41
64488;BMP280;50864;45.050;39.014;2023-02-22T07:22:37;100696.59;;;7.40
64488;BMP280;50864;45.050;39.014;2023-02-22T07:25:07;100697.63;;;7.34
64488;BMP280;50864;45.050;39.014;2023-02-22T07:27:36;100707.22;;;7.30
64488;BMP280;50864;45.050;39.014;2023-02-22T07:30:07;100705.56;;;7.19
64488;BMP280;50864;45.050;39.014;2023-02-22T07:32:33;100710.59;;;7.15
64488;BMP280;50864;45.050;39.014;2023-02-22T07:34:59;100715.63;;;7.12
64488;BMP280;50864;45.050;39.014;2023-02-22T07:37:27;100718.28;;;7.12
64488;BMP280;50864;45.050;39.014;2023-02-22T07:39:54;100719.34;;;7.11
64488;BMP280;50864;45.050;39.014;2023-02-22T07:42:20;100723.59;;;7.07
64488;BMP280;50864;45.050;39.014;2023-02-22T07:44:49;100717.47;;;7.06
64488;BMP280;50864;45.050;39.014;2023-02-22T07:47:14;100719.59;;;7.09
64488;BMP280;50864;45.050;39.014;2023-02-22T07:49:40;100717.50;;;7.11
64488;BMP280;50864;45.050;39.014;2023-02-22T07:52:06;100724.72;;;7.21
64488;BMP280;50864;45.050;39.014;2023-02-22T07:54:32;100733.03;;;7.30
64488;BMP280;50864;45.050;39.014;2023-02-22T07:56:58;100735.16;;;7.33
64488;BMP280;50864;45.050;39.014;2023-02-22T07:59:24;100739.69;;;7.32
64488;BMP280;50864;45.050;39.014;2023-02-22T08:01:49;100738.59;;;7.28
64488;BMP280;50864;45.050;39.014;2023-02-22T08:04:16;100734.06;;;7.23
64488;BMP280;50864;45.050;39.014;2023-02-22T08:06:41;100740.41;;;7.17
64488;BMP280;50864;45.050;39.014;2023-02-22T08:09:11;100737.19;;;7.10
64488;BMP280;50864;45.050;39.014;2023-02-22T08:11:37;100739.56;;;7.07
64488;BMP280;50864;45.050;39.014;2023-02-22T08:14:03;100740.62;;;7.06
64488;BMP280;50864;45.050;39.014;2023-02-22T08:16:28;100757.38;;;7.06
64488;BMP280;50864;45.050;39.014;2023-02-22T08:18:54;100760.56;;;7.08
64488;BMP280;50864;45.050;39.014;2023-02-22T08:21:20;100751.78;;;7.08
64488;BMP280;50864;45.050;39.014;2023-02-22T08:23:50;100759.00;;;7.07
64488;BMP280;50864;45.050;39.014;2023-02-22T08:26:16;100762.72;;;7.06
64488;BMP280;50864;45.050;39.014;2023-02-22T08:28:42;100771.44;;;7.02
64488;BMP280;50864;45.050;39.014;2023-02-22T08:31:08;100770.91;;;7.00
64488;BMP280;50864;45.050;39.014;2023-02-22T08:33:35;100774.91;;;7.02
64488;BMP280;50864;45.050;39.014;2023-02-22T08:36:01;100763.50;;;7.07
64488;BMP280;50864;45.050;39.014;2023-02-22T08:38:28;100777.62;;;7.07
64488;BMP280;50864;45.050;39.014;2023-02-22T08:40:55;100776.00;;;7.06
64488;BMP280;50864;45.050;39.014;2023-02-22T08:43:21;100776.53;;;7.08
64488;BMP280;50864;45.050;39.014;2023-02-22T08:45:48;100787.22;;;7.13
64488;BMP280;50864;45.050;39.014;2023-02-22T08:48:15;100773.44;;;7.21
64488;BMP280;50864;45.050;39.014;2023-02-22T08:50:41;100780.13;;;7.29
64488;BMP280;50864;45.050;39.014;2023-02-22T08:53:10;100783.66;;;7.40
64488;BMP280;50864;45.050;39.014;2023-02-22T08:55:39;100788.50;;;7.53
64488;BMP280;50864;45.050;39.014;2023-02-22T08:58:05;100787.78;;;7.62
64488;BMP280;50864;45.050;39.014;2023-02-22T09:00:36;100795.56;;;7.74
64488;BMP280;50864;45.050;39.014;2023-02-22T09:03:11;100789.72;;;7.82
64488;BMP280;50864;45.050;39.014;2023-02-22T09:05:38;100776.72;;;7.96
64488;BMP280;50864;45.050;39.014;2023-02-22T09:08:04;100778.59;;;8.11
64488;BMP280;50864;45.050;39.014;2023-02-22T09:10:32;100781.03;;;8.22
64488;BMP280;50864;45.050;39.014;2023-02-22T09:12:58;100795.19;;;8.38
64488;BMP280;50864;45.050;39.014;2023-02-22T09:15:25;100797.06;;;8.53
64488;BMP280;50864;45.050;39.014;2023-02-22T09:17:52;100793.59;;;8.57
64488;BMP280;50864;45.050;39.014;2023-02-22T09:20:23;100791.72;;;8.53
64488;BMP280;50864;45.050;39.014;2023-02-22T09:22:49;100785.59;;;8.47
64488;BMP280;50864;45.050;39.014;2023-02-22T09:25:16;100785.06;;;8.40
64488;BMP280;50864;45.050;39.014;2023-02-22T09:27:45;100789.28;;;8.31
64488;BMP280;50864;45.050;39.014;2023-02-22T09:30:38;100790.09;;;8.31
64488;BMP280;50864;45.050;39.014;2023-02-22T09:33:13;100788.25;;;8.27
64488;BMP280;50864;45.050;39.014;2023-02-22T09:35:41;100791.69;;;8.22
64488;BMP280;50864;45.050;39.014;2023-02-22T09:38:08;100787.69;;;8.15
64488;BMP280;50864;45.050;39.014;2023-02-22T09:40:39;100789.81;;;8.13
64488;BMP280;50864;45.050;39.014;2023-02-22T09:46:08;100785.06;;;8.30
64488;BMP280;50864;45.050;39.014;2023-02-22T09:52:13;100765.56;;;8.85
64488;BMP280;50864;45.050;39.014;2023-02-22T09:54:46;100766.50;;;9.40
64488;BMP280;50864;45.050;39.014;2023-02-22T09:57:26;66185.44;;;9.71
64488;BMP280;50864;45.050;39.014;2023-02-22T14:38:13;100763.13;;;9.78
64488;BMP280;50864;45.050;39.014;2023-02-22T14:40:44;100763.13;;;9.78
64488;BMP280;50864;45.050;39.014;2023-02-22T14:43:18;101057.03;;;4.95
64488;BMP280;50864;45.050;39.014;2023-02-22T14:45:52;101058.59;;;4.91
64488;BMP280;50864;45.050;39.014;2023-02-22T14:48:36;101058.22;;;4.87
64488;BMP280;50864;45.050;39.014;2023-02-22T14:51:24;101054.66;;;4.82
64488;BMP280;50864;45.050;39.014;2023-02-22T14:54:01;101063.53;;;4.76
64488;BMP280;50864;45.050;39.014;2023-02-22T14:56:34;101076.09;;;4.69
64488;BMP280;50864;45.050;39.014;2023-02-22T14:59:21;101071.75;;;4.63
64488;BMP280;50864;45.050;39.014;2023-02-22T15:02:08;101076.09;;;4.57
64488;BMP280;50864;45.050;39.014;2023-02-22T15:04:35;101083.97;;;4.52
64488;BMP280;50864;45.050;39.014;2023-02-22T15:07:21;101085.44;;;4.48
64488;BMP280;50864;45.050;39.014;2023-02-22T15:12:54;101105.59;;;4.37
64488;BMP280;50864;45.050;39.014;2023-02-22T15:15:35;101108.94;;;4.33
64488;BMP280;50864;45.050;39.014;2023-02-22T15:18:02;101114.13;;;4.28
64488;BMP280;50864;45.050;39.014;2023-02-22T15:20:34;101120.31;;;4.22
64488;BMP280;50864;45.050;39.014;2023-02-22T15:23:00;101119.13;;;4.18
64488;BMP280;50864;45.050;39.014;2023-02-22T15:25:28;101113.53;;;4.14
64488;BMP280;50864;45.050;39.014;2023-02-22T15:28:02;101125.37;;;4.12
64488;BMP280;50864;45.050;39.014;2023-02-22T15:30:31;101130.53;;;4.06
64488;BMP280;50864;45.050;39.014;2023-02-22T15:33:13;101129.81;;;3.99
64488;BMP280;50864;45.050;39.014;2023-02-22T15:35:39;101132.91;;;3.96
64488;BMP280;50864;45.050;39.014;2023-02-22T15:38:16;101135.41;;;3.91
64488;BMP280;50864;45.050;39.014;2023-02-22T15:40:45;101142.22;;;3.87
64488;BMP280;50864;45.050;39.014;2023-02-22T15:43:21;101144.12;;;3.80
64488;BMP280;50864;45.050;39.014;2023-02-22T15:45:54;101141.69;;;3.79
64488;BMP280;50864;45.050;39.014;2023-02-22T15:48:20;101150.91;;;3.76
64488;BMP280;50864;45.050;39.014;2023-02-22T15:51:12;101155.84;;;3.73
64488;BMP280;50864;45.050;39.014;2023-02-22T15:53:47;101155.69;;;3.67
64488;BMP280;50864;45.050;39.014;2023-02-22T15:56:24;101151.50;;;3.60
64488;BMP280;50864;45.050;39.014;2023-02-22T15:58:58;101164.38;;;3.56
64488;BMP280;50864;45.050;39.014;2023-02-22T16:01:25;101170.31;;;3.52
64488;BMP280;50864;45.050;39.014;2023-02-22T16:03:58;101171.22;;;3.46
64488;BMP280;50864;45.050;39.014;2023-02-22T16:06:36;101186.72;;;3.42
64488;BMP280;50864;45.050;39.014;2023-02-22T16:09:09;101188.41;;;3.37
64488;BMP280;50864;45.050;39.014;2023-02-22T16:11:41;101187.22;;;3.32
64488;BMP280;50864;45.050;39.014;2023-02-22T16:17:51;101197.41;;;3.29
64488;BMP280;50864;45.050;39.014;2023-02-22T16:20:28;101205.16;;;3.30
64488;BMP280;50864;45.050;39.014;2023-02-22T16:22:49;101202.91;;;3.27
64488;BMP280;50864;45.050;39.014;2023-02-22T16:32:48;101208.09;;;3.22
64488;BMP280;50864;45.050;39.014;2023-02-22T16:35:14;101205.88;;;3.19
64488;BMP280;50864;45.050;39.014;2023-02-22T16:37:48;101211.59;;;3.16
64488;BMP280;50864;45.050;39.014;2023-02-22T16:40:31;101217.09;;;3.15
64488;BMP280;50864;45.050;39.014;2023-02-22T16:45:30;101204.16;;;3.07
64488;BMP280;50864;45.050;39.014;2023-02-22T16:47:57;101215.97;;;3.04
64488;BMP280;50864;45.050;39.014;2023-02-22T16:50:23;101212.72;;;3.02
64488;BMP280;50864;45.050;39.014;2023-02-22T16:52:51;101213.31;;;3.04
64488;BMP280;50864;45.050;39.014;2023-02-22T16:55:18;101206.00;;;3.06
64488;BMP280;50864;45.050;39.014;2023-02-22T16:57:45;101203.34;;;3.06
64488;BMP280;50864;45.050;39.014;2023-02-22T17:00:22;101216.97;;;3.03
64488;BMP280;50864;45.050;39.014;2023-02-22T17:03:00;101216.84;;;2.98
64488;BMP280;50864;45.050;39.014;2023-02-22T17:05:31;101214.84;;;2.93
64488;BMP280;50864;45.050;39.014;2023-02-22T17:08:01;101217.31;;;2.88
64488;BMP280;50864;45.050;39.014;2023-02-22T17:10:27;101213.25;;;2.86
64488;BMP280;50864;45.050;39.014;2023-02-22T17:12:54;101211.28;;;2.81
64488;BMP280;50864;45.050;39.014;2023-02-22T17:15:31;101211.41;;;2.93
64488;BMP280;50864;45.050;39.014;2023-02-22T17:18:01;101212.44;;;2.92
64488;BMP280;50864;45.050;39.014;2023-02-22T17:20:30;101216.34;;;2.83
64488;BMP280;50864;45.050;39.014;2023-02-22T17:23:04;101206.22;;;2.73
64488;BMP280;50864;45.050;39.014;2023-02-22T17:25:39;101207.09;;;2.67
64488;BMP280;50864;45.050;39.014;2023-02-22T17:28:06;101217.50;;;2.62
64488;BMP280;50864;45.050;39.014;2023-02-22T17:30:32;101218.38;;;2.56
64488;BMP280;50864;45.050;39.014;2023-02-22T17:33:01;101224.28;;;2.51
64488;BMP280;50864;45.050;39.014;2023-02-22T17:35:32;101219.41;;;2.48
64488;BMP280;50864;45.050;39.014;2023-02-22T17:38:00;101220.88;;;2.44
64488;BMP280;50864;45.050;39.014;2023-02-22T17:40:27;101220.47;;;2.41
64488;BMP280;50864;45.050;39.014;2023-02-22T17:42:53;101220.09;;;2.37
64488;BMP280;50864;45.050;39.014;2023-02-22T17:45:22;101217.66;;;2.36
64488;BMP280;50864;45.050;39.014;2023-02-22T17:47:49;101222.12;;;2.35
64488;BMP280;50864;45.050;39.014;2023-02-22T17:50:16;101224.41;;;2.32
64488;BMP280;50864;45.050;39.014;2023-02-22T17:52:43;101221.38;;;2.28
64488;BMP280;50864;45.050;39.014;2023-02-22T17:55:10;101221.59;;;2.27
64488;BMP280;50864;45.050;39.014;2023-02-22T17:57:37;101218.12;;;2.26
64488;BMP280;50864;45.050;39.014;2023-02-22T18:00:06;101232.28;;;2.38
64488;BMP280;50864;45.050;39.014;2023-02-22T18:02:42;101239.12;;;2.52
64488;BMP280;50864;45.050;39.014;2023-02-22T18:05:09;101239.66;;;2.61
64488;BMP280;50864;45.050;39.014;2023-02-22T18:07:35;101247.28;;;2.76
64488;BMP280;50864;45.050;39.014;2023-02-22T18:10:05;101233.84;;;2.84
64488;BMP280;50864;45.050;39.014;2023-02-22T18:12:37;101234.00;;;2.89
64488;BMP280;50864;45.050;39.014;2023-02-22T18:15:06;101239.69;;;2.86
64488;BMP280;50864;45.050;39.014;2023-02-22T18:17:33;101241.78;;;2.84
64488;BMP280;50864;45.050;39.014;2023-02-22T18:19:59;101233.19;;;2.88
64488;BMP280;50864;45.050;39.014;2023-02-22T18:22:25;101226.28;;;2.87
64488;BMP280;50864;45.050;39.014;2023-02-22T18:24:51;101228.75;;;2.82
64488;BMP280;50864;45.050;39.014;2023-02-22T18:27:19;101225.78;;;2.72
64488;BMP280;50864;45.050;39.014;2023-02-22T18:29:45;101229.91;;;2.62
64488;BMP280;50864;45.050;39.014;2023-02-22T18:32:11;101228.75;;;2.51
64488;BMP280;50864;45.050;39.014;2023-02-22T18:34:38;101222.91;;;2.42
64488;BMP280;50864;45.050;39.014;2023-02-22T18:37:04;101230.25;;;2.34
64488;BMP280;50864;45.050;39.014;2023-02-22T18:39:31;101232.16;;;2.27
64488;BMP280;50864;45.050;39.014;2023-02-22T18:42:05;101252.50;;;2.19
64488;BMP280;50864;45.050;39.014;2023-02-22T18:44:31;101264.91;;;2.12
64488;BMP280;50864;45.050;39.014;2023-02-22T18:46:57;101268.38;;;2.06
64488;BMP280;50864;45.050;39.014;2023-02-22T18:49:23;101278.13;;;1.99
64488;BMP280;50864;45.050;39.014;2023-02-22T18:51:51;101287.25;;;1.97
64488;BMP280;50864;45.050;39.014;2023-02-22T18:54:17;101281.41;;;1.95
64488;BMP280;50864;45.050;39.014;2023-02-22T18:56:44;101277.56;;;1.91
64488;BMP280;50864;45.050;39.014;2023-02-22T18:59:11;101283.22;;;1.88
64488;BMP280;50864;45.050;39.014;2023-02-22T19:01:38;101274.72;;;1.86
64488;BMP280;50864;45.050;39.014;2023-02-22T19:04:08;101275.94;;;1.83
64488;BMP280;50864;45.050;39.014;2023-02-22T19:06:37;101264.41;;;1.77
64488;BMP280;50864;45.050;39.014;2023-02-22T19:09:04;101281.66;;;1.73
64488;BMP280;50864;45.050;39.014;2023-02-22T19:11:34;101276.97;;;1.69
64488;BMP280;50864;45.050;39.014;2023-02-22T19:14:01;101270.09;;;1.61
64488;BMP280;50864;45.050;39.014;2023-02-22T19:16:30;101267.47;;;1.55
64488;BMP280;50864;45.050;39.014;2023-02-22T19:18:56;101289.78;;;1.52
64488;BMP280;50864;45.050;39.014;2023-02-22T19:21:23;101276.59;;;1.52
64488;BMP280;50864;45.050;39.014;2023-02-22T19:23:49;101267.87;;;1.52
64488;BMP280;50864;45.050;39.014;2023-02-22T19:26:18;101271.53;;;1.51
64488;BMP280;50864;45.050;39.014;2023-02-22T19:28:45;101269.91;;;1.50
64488;BMP280;50864;45.050;39.014;2023-02-22T19:31:16;101267.47;;;1.48
64488;BMP280;50864;45.050;39.014;2023-02-22T19:33:42;101272.31;;;1.44
64488;BMP280;50864;45.050;39.014;2023-02-22T19:36:09;101277.81;;;1.43
64488;BMP280;50864;45.050;39.014;2023-02-22T19:38:35;101278.84;;;1.42
64488;BMP280;50864;45.050;39.014;2023-02-22T19:41:14;101280.06;;;1.39
64488;BMP280;50864;45.050;39.014;2023-02-22T19:43:45;101282.50;;;1.41
64488;BMP280;50864;45.050;39.014;2023-02-22T19:46:12;101272.34;;;1.38
64488;BMP280;50864;45.050;39.014;2023-02-22T19:48:38;101279.84;;;1.34
64488;BMP280;50864;45.050;39.014;2023-02-22T19:51:05;101274.78;;;1.33
64488;BMP280;50864;45.050;39.014;2023-02-22T19:53:33;101280.06;;;1.33
64488;BMP280;50864;45.050;39.014;2023-02-22T19:55:59;101279.25;;;1.32
64488;BMP280;50864;45.050;39.014;2023-02-22T19:58:25;101286.34;;;1.32
64488;BMP280;50864;45.050;39.014;2023-02-22T20:00:51;101282.72;;;1.33
64488;BMP280;50864;45.050;39.014;2023-02-22T20:03:17;101281.66;;;1.34
64488;BMP280;50864;45.050;39.014;2023-02-22T20:05:48;101285.72;;;1.36
64488;BMP280;50864;45.050;39.014;2023-02-22T20:08:14;101286.34;;;1.38
64488;BMP280;50864;45.050;39.014;2023-02-22T20:10:40;101279.25;;;1.39
64488;BMP280;50864;45.050;39.014;2023-02-22T20:13:06;101279.03;;;1.40
64488;BMP280;50864;45.050;39.014;2023-02-22T20:15:34;101283.88;;;1.43
64488;BMP280;50864;45.050;39.014;2023-02-22T20:18:01;101286.31;;;1.45
64488;BMP280;50864;45.050;39.014;2023-02-22T20:20:26;101289.56;;;1.47
64488;BMP280;50864;45.050;39.014;2023-02-22T20:22:52;101290.19;;;1.49
64488;BMP280;50864;45.050;39.014;2023-02-22T20:25:19;101290.00;;;1.51